Time;durP1;ratioP1;P1;durP2;ratioP2;P2;SDS_P1;SDS_P2;PMS_P1;PMS_P2;Temp;Humidity;BMP_temperature;BMP_pressure;BME280_temperature;BME280_humidity;BME280_pressure;Samples;Min_cycle;Max_cycle;Signal;HPM_P1;HPM_P2
2020/12/23 00:00:10;;;;;;;3.90;1.60;;;;;;;21.23;50.51;99855.19;4995777;28;20442;-72
2020/12/23 00:02:36;;;;;;;4.03;1.58;;;;;;;21.25;50.47;99848.09;4994459;28;20038;-72
2020/12/23 00:05:05;;;;;;;2.50;1.77;;;;;;;21.25;50.60;99853.38;4994017;28;20063;-75
2020/12/23 00:07:31;;;;;;;4.25;2.10;;;;;;;21.23;50.54;99846.41;4994004;28;20045;-72
2020/12/23 00:09:56;;;;;;;3.75;2.15;;;;;;;21.20;50.68;99841.22;4994038;28;20466;-75
2020/12/23 00:12:21;;;;;;;3.78;1.92;;;;;;;21.20;50.68;99838.59;4994401;28;20042;-76
2020/12/23 00:14:47;;;;;;;2.53;2.00;;;;;;;21.21;50.57;99832.41;4994272;28;20034;-72
2020/12/23 00:17:12;;;;;;;4.55;2.00;;;;;;;21.21;50.69;99841.19;4993617;28;20042;-75
2020/12/23 00:19:37;;;;;;;4.25;2.10;;;;;;;21.19;50.73;99835.13;4993430;28;20042;-75
2020/12/23 00:22:03;;;;;;;4.03;1.85;;;;;;;21.16;50.61;99831.72;4994192;28;20491;-73
2020/12/23 00:24:28;;;;;;;3.78;1.90;;;;;;;21.16;50.78;99827.31;4993086;28;20446;-75
2020/12/23 00:26:54;;;;;;;3.75;2.10;;;;;;;21.17;50.67;99815.84;4994718;28;20034;-74
2020/12/23 00:29:19;;;;;;;3.70;2.10;;;;;;;21.14;50.81;99823.84;4994148;28;20034;-73
2020/12/23 00:31:45;;;;;;;2.05;1.25;;;;;;;21.11;50.86;99822.19;4993820;28;20053;-76
2020/12/23 00:34:10;;;;;;;3.28;1.90;;;;;;;21.10;51.00;99824.84;4993904;28;20041;-76
2020/12/23 00:36:36;;;;;;;4.90;1.77;;;;;;;21.11;50.74;99827.44;4993202;28;20038;-74
2020/12/23 00:39:02;;;;;;;2.22;1.30;;;;;;;21.07;50.79;99814.44;4994023;28;20065;-75
2020/12/23 00:41:28;;;;;;;4.13;1.90;;;;;;;21.09;50.73;99805.56;4995163;28;20030;-76
2020/12/23 00:43:53;;;;;;;2.60;1.90;;;;;;;21.09;50.95;99805.56;4995347;28;20161;-79
2020/12/23 00:46:19;;;;;;;3.67;2.08;;;;;;;21.12;50.71;99799.31;4997667;28;20853;-75
2020/12/23 00:48:46;;;;;;;3.35;1.60;;;;;;;21.07;50.79;99796.00;4997589;28;20034;-73
2020/12/23 00:51:13;;;;;;;3.80;1.83;;;;;;;21.09;50.84;99800.28;5010415;28;20031;-72
2020/12/23 00:53:42;;;;;;;2.85;1.27;;;;;;;21.09;50.70;99800.28;4993297;28;20507;-75
2020/12/23 00:56:09;;;;;;;2.53;1.63;;;;;;;21.11;50.61;99803.75;4992345;28;20042;-73
2020/12/23 00:58:34;;;;;;;3.80;1.60;;;;;;;21.06;50.64;99795.09;4993352;28;20038;-72
2020/12/23 01:01:00;;;;;;;2.63;1.60;;;;;;;21.09;50.73;99792.38;4993605;28;20053;-72
2020/12/23 01:03:26;;;;;;;2.33;1.50;;;;;;;21.07;50.66;99788.94;4993277;28;20081;-72
2020/12/23 01:05:52;;;;;;;2.28;1.50;;;;;;;21.06;50.90;99778.44;4993034;28;20042;-75
2020/12/23 01:08:17;;;;;;;2.65;1.42;;;;;;;21.08;50.77;99779.28;4993108;28;20042;-73
2020/12/23 01:10:47;;;;;;;2.17;1.40;;;;;;;21.06;50.84;99776.66;4993210;28;20026;-73
2020/12/23 01:13:13;;;;;;;2.45;1.40;;;;;;;21.06;50.84;99767.91;4993066;28;20035;-74
2020/12/23 01:15:38;;;;;;;2.85;1.70;;;;;;;21.04;50.91;99772.38;4993332;28;20069;-76
2020/12/23 01:18:04;;;;;;;2.38;1.45;;;;;;;21.04;50.72;99772.38;4992506;28;20065;-72
2020/12/23 01:20:29;;;;;;;3.90;1.50;;;;;;;21.06;50.99;99770.56;4992751;28;20052;-75
2020/12/23 01:22:55;;;;;;;3.13;1.80;;;;;;;21.04;50.85;99775.84;4992928;28;20046;-77
2020/12/23 01:25:20;;;;;;;2.90;1.35;;;;;;;21.05;50.66;99777.56;4992951;28;20060;-73
2020/12/23 01:27:46;;;;;;;3.72;1.40;;;;;;;21.04;50.85;99772.38;4992708;28;20038;-73
2020/12/23 01:30:11;;;;;;;2.17;1.48;;;;;;;21.05;50.85;99785.47;4994673;28;20030;-76
2020/12/23 01:32:37;;;;;;;2.15;1.30;;;;;;;21.02;50.79;99782.94;5012227;28;20045;-75
2020/12/23 01:35:03;;;;;;;3.60;1.30;;;;;;;21.00;50.76;99779.50;5010587;28;20033;-73
2020/12/23 01:37:28;;;;;;;1.92;1.33;;;;;;;21.01;50.82;99783.88;5002911;28;20042;-75
2020/12/23 01:39:54;;;;;;;2.90;1.80;;;;;;;21.01;50.87;99780.34;4991421;28;20399;-76
2020/12/23 01:42:19;;;;;;;2.75;1.50;;;;;;;21.03;50.62;99781.19;4992599;28;20041;-74
2020/12/23 01:44:44;;;;;;;1.90;1.20;;;;;;;21.02;50.73;99780.31;4992534;28;20034;-74
2020/12/23 01:47:18;;;;;;;2.10;1.00;;;;;;;20.99;50.81;99785.69;4992190;28;20078;-76
2020/12/23 01:49:44;;;;;;;;;;;;;;;20.95;50.71;99773.50;4992806;28;20092;-76
2020/12/23 01:52:09;;;;;;;2.47;1.30;;;;;;;20.98;50.76;99779.53;4992064;28;19925;-73
2020/12/23 01:54:35;;;;;;;2.38;1.48;;;;;;;21.01;50.69;99781.25;4992638;28;20046;-73
2020/12/23 01:57:01;;;;;;;1.80;1.30;;;;;;;21.01;50.87;99783.00;4992417;28;20101;-74
2020/12/23 01:59:27;;;;;;;2.47;1.48;;;;;;;20.98;50.76;99778.69;4992586;28;20121;-73
2020/12/23 02:02:08;;;;;;;2.20;1.38;;;;;;;20.96;50.76;99781.34;4992514;28;20105;-74
2020/12/23 02:04:33;;;;;;;3.55;1.10;;;;;;;20.99;50.77;99770.72;4999460;28;20100;-75
2020/12/23 02:06:59;;;;;;;2.42;1.40;;;;;;;20.97;50.76;99779.59;5011848;28;20046;-73
2020/12/23 02:09:26;;;;;;;1.83;1.00;;;;;;;20.98;50.85;99774.28;5010786;28;20534;-75
2020/12/23 02:11:51;;;;;;;2.63;1.40;;;;;;;20.98;50.73;99770.78;5012044;28;20076;-75
2020/12/23 02:14:17;;;;;;;1.85;1.10;;;;;;;20.97;50.86;99754.09;5000978;28;20038;-74
2020/12/23 02:16:42;;;;;;;3.60;1.63;;;;;;;21.00;50.70;99763.72;4992110;28;20038;-73
2020/12/23 02:19:08;;;;;;;2.25;1.33;;;;;;;20.99;50.43;99760.19;4991690;28;20117;-75
2020/12/23 02:21:34;;;;;;;5.05;1.52;;;;;;;20.98;50.83;99758.47;5008011;28;20116;-76
2020/12/23 02:23:59;;;;;;;2.58;0.95;;;;;;;20.97;50.88;99756.75;5030244;28;20072;-75
2020/12/23 02:26:25;;;;;;;2.85;1.30;;;;;;;21.00;50.85;99758.44;5031998;28;20035;-78
2020/12/23 02:28:50;;;;;;;3.30;1.35;;;;;;;21.01;50.71;99754.03;5030585;28;20037;-74
2020/12/23 02:31:16;;;;;;;1.65;1.08;;;;;;;20.97;50.80;99750.63;5031741;28;20033;-76
2020/12/23 02:33:41;;;;;;;1.42;0.80;;;;;;;20.96;50.72;99752.38;4994783;28;20125;-75
2020/12/23 02:36:06;;;;;;;2.17;0.95;;;;;;;20.93;50.93;99749.88;4992232;28;20069;-73
2020/12/23 02:38:32;;;;;;;1.60;0.98;;;;;;;20.94;50.78;99759.47;4992032;28;20038;-74
2020/12/23 02:40:57;;;;;;;2.38;0.93;;;;;;;20.96;50.70;99755.03;4991175;28;20026;-72
2020/12/23 02:43:23;;;;;;;1.60;0.80;;;;;;;20.92;50.76;99747.28;4995866;28;20085;-74
2020/12/23 02:45:48;;;;;;;2.88;1.40;;;;;;;20.94;50.94;99751.56;4994750;28;20026;-74
2020/12/23 02:48:13;;;;;;;1.65;0.90;;;;;;;20.95;50.82;99739.28;4994829;28;20038;-79
2020/12/23 02:50:39;;;;;;;2.00;1.10;;;;;;;20.94;50.74;99746.28;4995987;28;20034;-72
2020/12/23 02:53:04;;;;;;;2.88;1.48;;;;;;;20.96;50.68;99749.75;4996578;28;20030;-74
2020/12/23 02:55:30;;;;;;;1.33;1.00;;;;;;;20.94;50.89;99741.03;4998163;28;20044;-75
2020/12/23 02:57:55;;;;;;;1.67;0.90;;;;;;;20.95;50.79;99736.63;4999659;28;20074;-75
2020/12/23 03:00:21;;;;;;;1.65;0.95;;;;;;;20.95;50.72;99732.22;5005367;28;20437;-74
2020/12/23 03:02:46;;;;;;;1.88;0.93;;;;;;;20.98;50.89;99729.50;5014633;28;20033;-73
2020/12/23 03:05:11;;;;;;;2.72;1.33;;;;;;;20.97;50.60;99732.19;5015137;28;20042;-72
2020/12/23 03:07:37;;;;;;;2.50;0.98;;;;;;;20.95;50.74;99729.59;5014767;28;20037;-75
2020/12/23 03:10:03;;;;;;;1.40;0.90;;;;;;;20.94;50.66;99719.97;5013937;28;20041;-75
2020/12/23 03:12:29;;;;;;;2.70;1.25;;;;;;;20.93;50.79;99718.25;5014922;28;20076;-73
2020/12/23 03:14:54;;;;;;;0.88;0.80;;;;;;;20.93;50.75;99725.28;4998450;28;20259;-73
2020/12/23 03:17:20;;;;;;;3.30;1.27;;;;;;;20.93;50.74;99728.81;4994983;28;20096;-73
2020/12/23 03:19:46;;;;;;;1.27;0.98;;;;;;;20.92;50.86;99710.41;4996224;28;20050;-73
2020/12/23 03:22:11;;;;;;;1.23;0.77;;;;;;;20.93;50.74;99709.47;5018128;28;20029;-75
2020/12/23 03:24:36;;;;;;;2.40;0.95;;;;;;;20.91;50.82;99708.66;5034508;28;20425;-74
2020/12/23 03:27:02;;;;;;;1.13;0.77;;;;;;;20.93;50.81;99707.72;5031220;28;20087;-77
2020/12/23 03:29:27;;;;;;;1.30;0.80;;;;;;;20.91;50.81;99708.66;4995028;28;20057;-73
2020/12/23 03:31:53;;;;;;;3.92;1.10;;;;;;;20.95;50.78;99705.03;4994824;28;20114;-75
2020/12/23 03:34:18;;;;;;;2.95;0.90;;;;;;;20.94;50.85;99706.78;4995054;28;20089;-74
2020/12/23 03:36:43;;;;;;;1.75;0.80;;;;;;;20.90;50.76;99707.81;4995148;28;20042;-73
2020/12/23 03:39:09;;;;;;;0.60;0.60;;;;;;;20.92;50.83;99695.47;4994913;28;20093;-75
2020/12/23 03:41:35;;;;;;;1.52;0.70;;;;;;;20.92;50.77;99694.59;4997846;28;20061;-75
2020/12/23 03:44:01;;;;;;;1.67;1.00;;;;;;;20.90;50.94;99692.03;5012517;28;20052;-76
2020/12/23 03:46:26;;;;;;;3.78;0.90;;;;;;;20.90;51.07;99694.66;4994187;28;20046;-73
2020/12/23 03:48:52;;;;;;;0.88;0.70;;;;;;;20.91;50.77;99691.13;4994407;28;20034;-75
2020/12/23 03:51:17;;;;;;;0.65;0.57;;;;;;;20.91;50.81;99684.97;4997922;28;20034;-75
2020/12/23 03:53:43;;;;;;;1.20;0.80;;;;;;;20.93;50.88;99673.50;5012979;28;20041;-78
2020/12/23 03:56:08;;;;;;;1.35;0.90;;;;;;;20.93;50.72;99670.84;5014316;28;20038;-73
2020/12/23 03:58:33;;;;;;;1.05;0.63;;;;;;;20.90;50.83;99660.41;5013781;28;20087;-72
2020/12/23 04:00:59;;;;;;;0.88;0.52;;;;;;;20.88;50.83;99658.72;5013946;28;20045;-74
2020/12/23 04:03:24;;;;;;;0.60;0.57;;;;;;;20.88;50.82;99649.06;5013887;28;20077;-78
2020/12/23 04:05:50;;;;;;;0.88;0.70;;;;;;;20.89;51.01;99660.44;5012701;28;20379;-75
2020/12/23 04:08:15;;;;;;;1.45;0.43;;;;;;;20.89;50.76;99649.91;5013976;28;20478;-79
2020/12/23 04:10:41;;;;;;;0.95;0.68;;;;;;;20.88;51.12;99640.28;5013765;28;20198;-73
2020/12/23 04:13:06;;;;;;;0.77;0.50;;;;;;;20.88;51.01;99635.91;5011845;28;20057;-73
2020/12/23 04:15:31;;;;;;;0.93;0.70;;;;;;;20.89;50.89;99629.72;5012549;28;20036;-73
2020/12/23 04:17:57;;;;;;;1.33;0.60;;;;;;;20.90;50.68;99633.19;5013173;28;20112;-72
2020/12/23 04:20:22;;;;;;;2.35;1.10;;;;;;;20.89;50.90;99627.09;5007388;28;20042;-74
2020/12/23 04:22:48;;;;;;;2.05;0.50;;;;;;;20.86;50.93;99627.19;4993836;28;20023;-72
2020/12/23 04:25:13;;;;;;;0.60;0.60;;;;;;;20.87;50.92;99613.09;4993922;28;20510;-73
2020/12/23 04:27:39;;;;;;;0.95;0.65;;;;;;;20.89;50.71;99615.69;4993877;28;20038;-75
2020/12/23 04:30:06;;;;;;;1.15;0.63;;;;;;;20.88;50.76;99614.84;4994217;28;20030;-73
2020/12/23 04:32:32;;;;;;;1.08;0.60;;;;;;;20.89;51.04;99599.88;4992624;28;20030;-75
2020/12/23 04:35:01;;;;;;;0.45;0.45;;;;;;;20.94;50.74;99611.13;4993779;28;20444;-74
2020/12/23 04:37:28;;;;;;;1.38;0.65;;;;;;;20.89;50.84;99613.03;4993696;28;20046;-73
2020/12/23 04:39:54;;;;;;;1.13;0.70;;;;;;;20.92;50.94;99623.47;4993833;28;20092;-75
2020/12/23 04:42:20;;;;;;;0.88;0.75;;;;;;;20.90;50.93;99626.19;4993535;28;20034;-76
2020/12/23 04:44:46;;;;;;;1.38;0.85;;;;;;;20.90;50.84;99628.81;4993496;28;20049;-76
2020/12/23 04:47:15;;;;;;;1.52;0.55;;;;;;;20.90;50.83;99627.94;4993320;28;20034;-74
2020/12/23 04:49:45;;;;;;;0.68;0.40;;;;;;;20.90;50.69;99634.06;4993786;28;20176;-77
2020/12/23 04:52:11;;;;;;;1.15;0.50;;;;;;;20.86;50.85;99637.72;4992169;28;20042;-76
2020/12/23 04:54:37;;;;;;;1.23;0.60;;;;;;;20.88;50.84;99645.56;4993555;28;20727;-75
2020/12/23 04:57:03;;;;;;;0.70;0.55;;;;;;;20.87;50.78;99663.16;4993038;28;20038;-76
2020/12/23 04:59:29;;;;;;;0.88;0.70;;;;;;;20.91;50.79;99658.63;4993388;28;20410;-75
2020/12/23 05:01:57;;;;;;;0.50;0.50;;;;;;;20.88;50.85;99651.69;4992619;28;20168;-75
2020/12/23 05:04:25;;;;;;;1.02;0.60;;;;;;;20.86;50.92;99648.25;4993918;28;20042;-73
2020/12/23 05:07:00;;;;;;;0.95;0.60;;;;;;;20.85;50.73;99643.91;4993182;28;20170;-76
2020/12/23 05:09:26;;;;;;;0.90;0.70;;;;;;;20.87;50.86;99643.84;4993771;28;20077;-77
2020/12/23 05:11:53;;;;;;;1.58;0.55;;;;;;;20.87;50.99;99639.44;4993323;28;20038;-73
2020/12/23 05:14:19;;;;;;;0.98;0.60;;;;;;;20.87;50.98;99642.06;4990430;28;20395;-74
2020/12/23 05:16:45;;;;;;;0.90;0.60;;;;;;;20.89;50.72;99628.84;4991478;28;20034;-74
2020/12/23 05:19:11;;;;;;;1.10;0.57;;;;;;;20.88;50.76;99624.50;4990932;28;20541;-75
2020/12/23 05:21:40;;;;;;;2.05;0.70;;;;;;;20.84;50.91;99624.63;4992634;28;20062;-73
2020/12/23 05:24:07;;;;;;;0.77;0.40;;;;;;;20.86;50.92;99615.81;5031566;28;20433;-73
2020/12/23 05:26:38;;;;;;;3.42;0.38;;;;;;;20.87;50.80;99612.22;5031903;28;20091;-75
2020/12/23 05:29:03;;;;;;;1.52;0.70;;;;;;;20.85;50.80;99617.56;5032474;28;20545;-73
2020/12/23 05:31:32;;;;;;;0.50;0.50;;;;;;;20.82;51.04;99622.91;5032241;28;20064;-73
2020/12/23 05:33:58;;;;;;;0.93;0.60;;;;;;;20.87;50.97;99618.38;5024925;28;20030;-75
2020/12/23 05:36:25;;;;;;;0.95;0.60;;;;;;;20.87;50.92;99609.59;4993022;28;20414;-74
2020/12/23 05:38:51;;;;;;;0.40;0.40;;;;;;;20.89;50.86;99606.03;4992776;28;20499;-74
2020/12/23 05:41:17;;;;;;;0.77;0.52;;;;;;;20.85;50.93;99596.50;4992645;28;20122;-75
2020/12/23 05:43:43;;;;;;;0.55;0.50;;;;;;;20.87;50.73;99580.63;4992719;28;20076;-75
2020/12/23 05:46:11;;;;;;;1.05;0.50;;;;;;;20.87;50.90;99578.88;4992547;28;20153;-74
2020/12/23 05:48:38;;;;;;;1.45;0.57;;;;;;;20.87;50.77;99584.13;4992764;28;20035;-75
2020/12/23 05:51:08;;;;;;;0.80;0.60;;;;;;;20.86;50.94;99581.56;4991133;28;20038;-74
2020/12/23 05:53:36;;;;;;;0.93;0.60;;;;;;;20.87;50.89;99581.50;5012287;28;20034;-73
2020/12/23 05:56:05;;;;;;;0.45;0.45;;;;;;;20.86;50.88;99576.31;5012023;28;20069;-75
2020/12/23 05:58:33;;;;;;;0.60;0.50;;;;;;;20.88;50.88;99567.44;5011006;28;20096;-73
2020/12/23 06:01:00;;;;;;;0.40;0.38;;;;;;;20.83;50.79;99557.06;5010732;28;20374;-73
2020/12/23 06:03:28;;;;;;;1.80;0.70;;;;;;;20.83;50.82;99554.41;5011046;28;20116;-75
2020/12/23 06:05:58;;;;;;;0.85;0.57;;;;;;;20.85;50.81;99554.34;5011913;28;20038;-74
2020/12/23 06:08:39;;;;;;;0.50;0.50;;;;;;;20.85;50.72;99562.25;5010930;28;20052;-74
2020/12/23 06:11:29;;;;;;;0.95;0.57;;;;;;;20.82;50.74;99562.34;5012039;28;20030;-74
2020/12/23 06:14:03;;;;;;;1.45;0.30;;;;;;;20.82;50.70;99573.78;5012486;28;20088;-73
2020/12/23 06:16:32;;;;;;;0.98;0.40;;;;;;;20.83;50.81;99580.75;5013057;28;20562;-75
2020/12/23 06:19:00;;;;;;;0.68;0.52;;;;;;;20.87;50.79;99591.16;5013348;28;20045;-73
2020/12/23 06:21:27;;;;;;;1.48;0.50;;;;;;;20.86;50.78;99592.09;5000189;28;20076;-76
2020/12/23 06:24:13;;;;;;;0.77;0.63;;;;;;;20.84;50.65;99587.75;5009146;28;20042;-73
2020/12/23 06:26:40;;;;;;;1.13;0.60;;;;;;;20.86;50.58;99582.41;4978811;28;20038;-75
2020/12/23 06:29:07;;;;;;;0.50;0.50;;;;;;;20.84;50.77;99574.59;4995307;28;20104;-75
2020/12/23 06:31:39;;;;;;;0.50;0.43;;;;;;;20.84;50.81;99585.13;4978740;28;20031;-73
2020/12/23 06:34:05;;;;;;;0.55;0.47;;;;;;;20.85;50.86;99578.06;4996325;28;20038;-75
2020/12/23 06:36:32;;;;;;;1.27;0.60;;;;;;;20.82;51.02;99570.25;4994484;28;20505;-73
2020/12/23 06:39:30;;;;;;;2.97;0.40;;;;;;;20.80;50.75;99572.06;4995825;28;20042;-74
2020/12/23 06:42:15;;;;;;;0.90;0.57;;;;;;;20.80;50.91;99572.06;4995396;28;20092;-73
2020/12/23 06:44:41;;;;;;;0.80;0.50;;;;;;;20.83;50.78;99572.84;4995921;28;20491;-75
2020/12/23 06:47:27;;;;;;;0.55;0.40;;;;;;;20.81;50.94;99571.16;4994503;28;20037;-75
2020/12/23 06:49:54;;;;;;;0.85;0.60;;;;;;;20.78;50.76;99569.50;4995785;28;20050;-72
2020/12/23 06:52:29;;;;;;;1.77;0.50;;;;;;;20.80;50.63;99562.41;5003049;28;20030;-74
2020/12/23 06:55:03;;;;;;;0.60;0.45;;;;;;;20.85;50.87;99564.91;4995107;28;20046;-75
2020/12/23 06:57:37;;;;;;;;;;;;;;;20.77;50.79;99564.31;5010982;28;20395;-75
2020/12/23 07:00:03;;;;;;;1.73;0.55;;;;;;;20.83;50.85;99558.81;4994642;28;19920;-74
2020/12/23 07:02:32;;;;;;;0.47;0.40;;;;;;;20.82;50.73;99570.25;4995493;28;20034;-75
2020/12/23 07:04:58;;;;;;;0.57;0.43;;;;;;;20.84;50.85;99565.81;4995771;28;20038;-74
2020/12/23 07:07:34;;;;;;;0.30;0.30;;;;;;;20.83;50.59;99567.59;5010854;28;20069;-75
2020/12/23 07:10:15;;;;;;;0.77;0.30;;;;;;;20.83;50.63;99572.84;4996030;28;20034;-75
2020/12/23 07:12:47;;;;;;;0.75;0.50;;;;;;;20.81;50.84;99571.16;4994561;28;20520;-74
2020/12/23 07:15:15;;;;;;;0.63;0.40;;;;;;;20.81;50.90;99564.16;4996245;28;20492;-75
2020/12/23 07:17:43;;;;;;;0.40;0.40;;;;;;;20.82;50.66;99559.72;4995645;28;20041;-76
2020/12/23 07:20:12;;;;;;;0.50;0.50;;;;;;;20.81;50.69;99555.38;5000660;28;20030;-76
2020/12/23 07:22:38;;;;;;;1.17;0.50;;;;;;;20.82;50.96;99546.56;5022730;28;20060;-73
2020/12/23 07:25:05;;;;;;;0.40;0.40;;;;;;;20.80;50.89;99551.00;5034065;28;20030;-75
2020/12/23 07:27:32;;;;;;;1.55;0.40;;;;;;;20.79;50.87;99552.81;5019311;28;20050;-76
2020/12/23 07:30:07;;;;;;;0.30;0.30;;;;;;;20.79;50.77;99552.81;4995431;28;20030;-73
2020/12/23 07:32:32;;;;;;;0.38;0.32;;;;;;;20.83;50.76;99559.69;4995048;28;20030;-73
2020/12/23 07:34:59;;;;;;;0.82;0.40;;;;;;;20.79;51.04;99557.19;4995218;28;20534;-75
2020/12/23 07:37:41;;;;;;;1.17;0.50;;;;;;;20.78;50.76;99555.50;4993504;28;20443;-75
2020/12/23 07:40:16;;;;;;;1.48;0.40;;;;;;;20.79;50.90;99541.38;4995428;28;20038;-76
2020/12/23 07:42:51;;;;;;;0.85;0.40;;;;;;;20.80;50.71;99549.25;4995016;28;20088;-73
2020/12/23 07:45:18;;;;;;;0.35;0.32;;;;;;;20.79;50.78;99552.81;4994793;28;20034;-73
2020/12/23 07:47:56;;;;;;;0.40;0.40;;;;;;;20.83;50.61;99554.41;4994184;28;20577;-73
2020/12/23 07:50:23;;;;;;;1.15;0.55;;;;;;;20.83;50.83;99543.91;4994615;28;20117;-73
2020/12/23 07:52:48;;;;;;;1.35;0.50;;;;;;;20.80;50.67;99551.88;4994723;28;20070;-77
2020/12/23 07:55:16;;;;;;;2.35;0.50;;;;;;;20.81;50.71;99552.72;4994419;28;20070;-75
2020/12/23 07:57:42;;;;;;;2.50;0.57;;;;;;;20.80;50.76;99544.00;4994017;28;20034;-76
2020/12/23 08:00:09;;;;;;;1.58;0.40;;;;;;;20.80;50.90;99538.72;4994513;28;20615;-75
2020/12/23 08:02:35;;;;;;;3.83;0.60;;;;;;;20.82;50.77;99530.75;4994210;28;20432;-74
2020/12/23 08:05:02;;;;;;;1.83;0.52;;;;;;;20.86;50.66;99537.66;5006743;28;20084;-76
2020/12/23 08:07:27;;;;;;;1.38;0.60;;;;;;;20.86;50.70;99531.53;5001769;28;20132;-79
2020/12/23 08:09:53;;;;;;;4.65;0.63;;;;;;;20.88;50.92;99534.94;4994044;28;20110;-79
2020/12/23 08:12:20;;;;;;;8.63;0.90;;;;;;;20.88;50.91;99527.06;4994567;28;20080;-73
2020/12/23 08:14:45;;;;;;;3.17;0.68;;;;;;;20.89;50.70;99534.91;4994321;28;20030;-75
2020/12/23 08:17:23;;;;;;;1.58;0.60;;;;;;;20.90;50.62;99541.03;4994082;28;20034;-73
2020/12/23 08:20:07;;;;;;;2.13;0.80;;;;;;;20.91;50.70;99534.84;4995436;28;20092;-74
2020/12/23 08:22:34;;;;;;;1.07;0.53;;;;;;;20.91;50.95;99534.84;5008735;28;20117;-76
2020/12/23 08:25:20;;;;;;;1.60;0.80;;;;;;;20.89;50.84;99524.38;4992995;28;20282;-73
2020/12/23 08:27:50;;;;;;;3.58;0.75;;;;;;;20.91;50.87;99519.94;4992119;28;20095;-80
2020/12/23 08:30:25;;;;;;;1.23;0.60;;;;;;;20.91;51.04;99519.03;4992970;28;20121;-78
2020/12/23 08:33:16;;;;;;;3.90;0.70;;;;;;;21.01;50.83;99515.19;4993892;28;20049;-73
2020/12/23 08:35:44;;;;;;;4.47;1.10;;;;;;;21.14;50.78;99521.75;4993413;28;20046;-73
2020/12/23 08:38:20;;;;;;;4.38;0.70;;;;;;;21.27;50.72;99516.84;4993898;28;20502;-76
2020/12/23 08:40:47;;;;;;;6.53;0.88;;;;;;;21.39;50.82;99522.63;5003696;28;20038;-79
2020/12/23 08:43:22;;;;;;;6.60;1.20;;;;;;;21.45;50.85;99531.16;4993307;28;20069;-77
2020/12/23 08:45:49;;;;;;;8.05;1.13;;;;;;;21.52;50.90;99517.72;4992301;28;20026;-78
2020/12/23 08:48:20;;;;;;;8.18;0.90;;;;;;;21.50;50.95;99514.28;4992786;28;20030;-77
2020/12/23 08:50:57;;;;;;;5.28;1.02;;;;;;;21.50;50.88;99509.00;4993391;28;20057;-73
2020/12/23 08:53:37;;;;;;;5.93;0.80;;;;;;;21.50;50.91;99501.97;5011409;28;20121;-74
2020/12/23 08:56:24;;;;;;;1.45;0.60;;;;;;;21.43;51.06;99504.00;5001459;28;20387;-72
2020/12/23 08:58:51;;;;;;;3.80;1.02;;;;;;;21.50;51.13;99503.75;5010916;28;20030;-76
2020/12/23 09:01:25;;;;;;;6.53;1.00;;;;;;;21.46;50.93;99495.09;4991876;28;20046;-74
2020/12/23 09:04:16;;;;;;;2.92;0.73;;;;;;;21.45;51.18;99501.28;4991802;28;20046;-74
2020/12/23 09:06:44;;;;;;;5.00;1.17;;;;;;;21.45;51.19;99494.25;4990937;28;20050;-76
2020/12/23 09:09:21;;;;;;;4.22;1.02;;;;;;;21.46;51.07;99500.38;4993378;28;20487;-76
2020/12/23 09:11:48;;;;;;;5.05;1.00;;;;;;;21.45;51.02;99496.88;4996119;28;20047;-76
2020/12/23 09:14:27;;;;;;;6.07;1.10;;;;;;;21.43;51.14;99496.09;5003558;28;20033;-72
2020/12/23 09:17:07;;;;;;;5.50;1.25;;;;;;;21.43;51.17;99500.47;5006157;28;20399;-75
2020/12/23 09:20:01;;;;;;;5.85;1.30;;;;;;;21.43;50.88;99498.72;5010369;28;20099;-78
2020/12/23 09:22:26;;;;;;;3.67;1.48;;;;;;;21.43;51.07;99501.34;4995748;28;20045;-75
2020/12/23 09:24:53;;;;;;;5.88;0.90;;;;;;;21.39;51.30;99496.25;5001501;28;20407;-74
2020/12/23 09:27:23;;;;;;;7.32;0.85;;;;;;;21.36;51.15;99496.38;4994054;28;20399;-74
2020/12/23 09:29:49;;;;;;;6.07;1.58;;;;;;;21.32;51.37;99494.75;4992368;28;20023;-72
2020/12/23 09:32:15;;;;;;;2.83;0.80;;;;;;;21.32;51.12;99490.38;5001953;28;20037;-74
2020/12/23 09:34:41;;;;;;;3.35;1.30;;;;;;;21.34;51.22;99490.28;5012987;28;20030;-75
2020/12/23 09:37:07;;;;;;;4.50;0.68;;;;;;;21.38;51.04;99498.03;5012234;28;20525;-77
2020/12/23 09:39:36;;;;;;;6.07;0.80;;;;;;;21.33;51.06;99486.81;5011898;28;20146;-76
2020/12/23 09:42:07;;;;;;;1.88;0.90;;;;;;;21.35;51.06;99487.59;5012286;28;20100;-73
2020/12/23 09:44:34;;;;;;;11.35;1.38;;;;;;;21.30;51.29;99485.13;5006114;28;20034;-73
2020/12/23 09:47:00;;;;;;;7.63;1.52;;;;;;;21.33;51.16;99485.94;4996512;28;20049;-78
2020/12/23 09:49:27;;;;;;;4.78;1.27;;;;;;;21.27;51.26;99468.59;4992403;28;20899;-75
2020/12/23 09:51:53;;;;;;;6.28;1.10;;;;;;;21.34;51.03;99463.94;4999650;28;20030;-74
2020/12/23 09:54:19;;;;;;;3.78;1.02;;;;;;;21.35;51.07;99458.59;5012130;28;20092;-76
2020/12/23 09:56:52;;;;;;;8.13;1.38;;;;;;;21.31;50.96;99454.38;5012116;28;20041;-74
2020/12/23 09:59:19;;;;;;;7.30;1.25;;;;;;;21.31;51.00;99459.66;5012013;28;20070;-76
2020/12/23 10:01:45;;;;;;;7.00;1.02;;;;;;;21.32;51.16;99457.88;5009776;28;21545;-74
2020/12/23 10:04:10;;;;;;;5.95;1.40;;;;;;;21.30;51.08;99450.88;4992120;28;20082;-75
2020/12/23 10:06:36;;;;;;;4.47;1.35;;;;;;;21.28;51.21;99450.06;4997188;28;20493;-75
2020/12/23 10:09:01;;;;;;;12.27;1.38;;;;;;;21.26;51.16;99444.00;4994689;28;20042;-77
2020/12/23 10:11:28;;;;;;;7.60;1.50;;;;;;;21.27;51.09;99447.50;5009115;28;20118;-78
2020/12/23 10:13:53;;;;;;;11.38;1.25;;;;;;;21.30;51.18;99447.41;5009803;28;20471;-78
2020/12/23 10:16:19;;;;;;;3.03;1.50;;;;;;;21.28;51.31;99443.94;5005102;28;20117;-80
2020/12/23 10:18:44;;;;;;;7.93;1.70;;;;;;;21.29;51.17;99441.25;5003973;28;20113;-81
2020/12/23 10:21:12;;;;;;;3.80;1.27;;;;;;;21.29;51.21;99430.72;4997684;28;20035;-76
2020/12/23 10:23:38;;;;;;;8.13;1.35;;;;;;;21.27;51.24;99432.53;5011650;28;20033;-73
2020/12/23 10:26:03;;;;;;;3.95;1.27;;;;;;;21.28;51.26;99423.72;5011922;28;20041;-76
2020/12/23 10:28:29;;;;;;;7.63;1.50;;;;;;;21.28;51.17;99421.09;5005846;28;20058;-80
2020/12/23 10:30:54;;;;;;;8.30;1.98;;;;;;;21.27;51.27;99427.28;4991914;28;20042;-76
2020/12/23 10:33:19;;;;;;;8.90;2.05;;;;;;;21.28;51.29;99431.63;4990804;28;20039;-79
2020/12/23 10:35:45;;;;;;;4.90;1.25;;;;;;;21.28;51.31;99425.50;4991091;28;20034;-79
2020/12/23 10:38:10;;;;;;;9.13;1.92;;;;;;;21.29;51.39;99435.13;4992147;28;20073;-77
2020/12/23 10:40:36;;;;;;;8.38;1.65;;;;;;;21.28;51.30;99431.63;4992512;28;20054;-74
2020/12/23 10:43:02;;;;;;;8.98;1.60;;;;;;;21.30;51.34;99432.44;4992216;28;20038;-75
2020/12/23 10:45:27;;;;;;;6.93;1.15;;;;;;;21.30;51.38;99432.44;4991916;28;20499;-76
2020/12/23 10:47:53;;;;;;;3.78;1.10;;;;;;;21.30;51.38;99427.16;4991920;28;20030;-74
2020/12/23 10:50:18;;;;;;;6.88;1.60;;;;;;;21.29;51.37;99429.88;4992132;28;20080;-76
2020/12/23 10:52:43;;;;;;;6.20;1.58;;;;;;;21.29;51.33;99422.81;4992383;28;20038;-75
2020/12/23 10:55:09;;;;;;;5.93;1.33;;;;;;;21.29;51.47;99420.16;4991913;28;20102;-76
2020/12/23 10:57:34;;;;;;;3.20;1.15;;;;;;;21.29;51.41;99412.25;4990704;28;20104;-74
2020/12/23 10:59:59;;;;;;;3.63;0.95;;;;;;;21.29;51.38;99404.34;4991905;28;20042;-76
2020/12/23 11:02:25;;;;;;;4.38;1.30;;;;;;;21.30;51.12;99405.22;4992305;28;20060;-75
2020/12/23 11:04:51;;;;;;;6.57;1.40;;;;;;;21.31;51.34;99399.03;4995229;28;20044;-77
2020/12/23 11:07:16;;;;;;;4.55;1.05;;;;;;;21.32;51.36;99391.97;4995483;28;20042;-77
2020/12/23 11:09:42;;;;;;;2.10;0.90;;;;;;;21.30;51.18;99400.81;4994374;28;20030;-78
2020/12/23 11:12:11;;;;;;;4.35;1.17;;;;;;;21.30;51.38;99390.25;4994359;28;20026;-78
2020/12/23 11:14:36;;;;;;;4.80;1.42;;;;;;;21.30;51.49;99390.25;4995052;28;20043;-78
2020/12/23 11:17:02;;;;;;;5.85;1.73;;;;;;;21.30;51.35;99379.72;4995042;28;20038;-77
2020/12/23 11:19:27;;;;;;;3.40;1.77;;;;;;;21.31;51.46;99380.59;4993605;28;20133;-78
2020/12/23 11:21:53;;;;;;;4.00;1.42;;;;;;;21.30;51.34;99368.34;4996303;28;20030;-79
2020/12/23 11:24:18;;;;;;;3.20;1.17;;;;;;;21.30;51.47;99373.63;5033363;28;20025;-78
2020/12/23 11:26:44;;;;;;;5.15;1.40;;;;;;;21.29;51.60;99367.47;5034331;28;20036;-76
2020/12/23 11:29:09;;;;;;;2.50;1.00;;;;;;;21.29;51.33;99370.09;5027769;28;20037;-77
2020/12/23 11:31:35;;;;;;;4.40;1.40;;;;;;;21.28;51.72;99373.66;5013510;28;20036;-79
2020/12/23 11:34:00;;;;;;;3.00;1.00;;;;;;;21.26;51.47;99374.63;5012609;28;20100;-77
2020/12/23 11:36:27;;;;;;;5.88;1.17;;;;;;;21.27;51.59;99377.19;4994602;28;20042;-78